Time;durP1;ratioP1;P1;durP2;ratioP2;P2;SDS_P1;SDS_P2;PMS_P1;PMS_P2;Temp;Humidity;BMP_temperature;BMP_pressure;BME280_temperature;BME280_humidity;BME280_pressure;Samples;Min_cycle;Max_cycle;Signal;HPM_P1;HPM_P2
2023/10/10 00:02:04;;;;;;;28.00;18.08;;;;;;;15.09;100.00;101916.59;5071078;28;20044;-46
2023/10/10 00:04:34;;;;;;;28.17;19.40;;;;;;;15.05;100.00;101913.31;5071201;28;20053;-46
2023/10/10 00:07:07;;;;;;;26.45;18.80;;;;;;;15.05;100.00;101915.94;5071228;28;20487;-45
2023/10/10 00:09:36;;;;;;;25.80;18.85;;;;;;;15.03;100.00;101901.97;5070961;28;20403;-46
2023/10/10 00:12:06;;;;;;;28.92;19.27;;;;;;;15.04;100.00;101901.88;5064653;28;20044;-47
2023/10/10 00:14:34;;;;;;;29.48;20.33;;;;;;;15.01;100.00;101899.44;5067633;28;20044;-47
2023/10/10 00:17:03;;;;;;;28.85;21.08;;;;;;;14.99;100.00;101900.50;5068531;28;20044;-45
2023/10/10 00:19:32;;;;;;;28.08;19.02;;;;;;;14.93;100.00;101896.47;5066547;28;20087;-47
2023/10/10 00:22:03;;;;;;;27.75;17.40;;;;;;;14.94;100.00;101897.28;5065823;28;20033;-49
2023/10/10 00:24:32;;;;;;;28.77;19.03;;;;;;;14.90;100.00;101904.59;5066169;28;20052;-48
2023/10/10 00:27:12;;;;;;;23.08;17.83;;;;;;;14.83;100.00;101901.53;5064346;28;20040;-46
2023/10/10 00:29:43;;;;;;;23.55;18.63;;;;;;;14.81;100.00;101890.16;5066090;28;20407;-45
2023/10/10 00:32:17;;;;;;;24.67;18.00;;;;;;;14.79;100.00;101899.16;5072086;28;20071;-45
2023/10/10 00:34:47;;;;;;;23.05;17.63;;;;;;;14.77;100.00;101901.09;5070728;28;20132;-47
2023/10/10 00:37:21;;;;;;;25.33;17.80;;;;;;;14.70;100.00;101901.47;5069930;28;20048;-47
2023/10/10 00:39:52;;;;;;;;;;;;;;;14.72;100.00;101905.81;5070405;28;20135;-46
2023/10/10 00:42:36;;;;;;;26.23;17.52;;;;;;;14.72;100.00;101904.00;5069261;28;19924;-47
2023/10/10 00:45:09;;;;;;;27.42;20.00;;;;;;;14.74;100.00;101898.59;5072435;28;20080;-46
2023/10/10 00:47:44;;;;;;;25.75;17.80;;;;;;;14.71;100.00;101907.59;5074563;28;20048;-49
2023/10/10 00:50:18;;;;;;;23.40;17.98;;;;;;;14.66;100.00;101902.63;5071878;28;20086;-48
2023/10/10 00:52:49;;;;;;;25.23;18.48;;;;;;;14.63;100.00;101907.25;5069700;28;20037;-45
2023/10/10 00:55:21;;;;;;;26.23;19.13;;;;;;;14.60;100.00;101905.66;5068363;28;20044;-45
2023/10/10 00:57:55;;;;;;;26.08;18.27;;;;;;;14.58;100.00;101896.13;5070504;28;20131;-47
2023/10/10 01:00:30;;;;;;;25.48;19.95;;;;;;;14.57;100.00;101889.94;5074344;28;20127;-45
2023/10/10 01:03:07;;;;;;;26.30;19.33;;;;;;;14.54;100.00;101887.50;5071965;28;20143;-46
2023/10/10 01:05:43;;;;;;;25.55;18.67;;;;;;;14.52;100.00;101886.78;5069287;28;20143;-47
2023/10/10 01:08:17;;;;;;;24.73;19.05;;;;;;;14.48;100.00;101880.81;5069117;28;20131;-47
2023/10/10 01:10:47;;;;;;;28.88;19.33;;;;;;;14.43;100.00;101877.63;5069651;28;20527;-45
2023/10/10 01:13:17;;;;;;;31.02;20.77;;;;;;;14.42;100.00;101864.50;5074153;28;20513;-46
2023/10/10 01:15:45;;;;;;;31.80;21.70;;;;;;;14.43;100.00;101860.91;5071059;28;20083;-46
2023/10/10 01:18:15;;;;;;;30.70;21.85;;;;;;;14.40;100.00;101859.31;5069374;28;20098;-47
2023/10/10 01:20:49;;;;;;;25.55;20.67;;;;;;;14.42;100.00;101862.69;5073730;28;20063;-46
2023/10/10 01:23:26;;;;;;;27.67;20.77;;;;;;;14.38;100.00;101858.53;5074078;28;20535;-46
2023/10/10 01:26:05;;;;;;;26.35;19.40;;;;;;;14.39;100.00;101854.13;5073805;28;20053;-49
2023/10/10 01:28:34;;;;;;;25.17;19.35;;;;;;;14.35;100.00;101858.75;5073341;28;20454;-45
2023/10/10 01:31:07;;;;;;;28.17;20.48;;;;;;;14.35;100.00;101853.47;5068580;28;20049;-46
2023/10/10 01:33:42;;;;;;;28.17;19.02;;;;;;;14.33;100.00;101853.56;5069323;28;20048;-46
2023/10/10 01:36:19;;;;;;;23.92;18.05;;;;;;;14.33;100.00;101856.22;5071079;28;20048;-48
2023/10/10 01:39:19;;;;;;;25.52;18.88;;;;;;;14.30;100.00;101856.41;5070579;28;20509;-45
2023/10/10 01:41:49;;;;;;;23.17;18.85;;;;;;;14.28;100.00;101842.44;5067867;28;20055;-47
2023/10/10 01:44:22;;;;;;;28.08;20.63;;;;;;;14.26;100.00;101841.69;5067900;28;20044;-45
2023/10/10 01:46:54;;;;;;;25.67;19.95;;;;;;;14.25;100.00;101840.00;5068901;28;20052;-48
2023/10/10 01:49:25;;;;;;;28.08;20.63;;;;;;;14.26;100.00;101833.75;5072089;28;20116;-50
2023/10/10 01:51:55;;;;;;;29.05;20.55;;;;;;;14.20;100.00;101837.63;5072634;28;20048;-49
2023/10/10 01:54:34;;;;;;;28.48;19.88;;;;;;;14.15;100.00;101826.50;5069080;28;20083;-46
2023/10/10 01:57:07;;;;;;;26.25;19.17;;;;;;;14.16;100.00;101827.34;5068869;28;20059;-47
2023/10/10 01:59:38;;;;;;;27.30;19.42;;;;;;;14.11;100.00;101830.31;5069911;28;20044;-48
2023/10/10 02:02:11;;;;;;;31.60;21.10;;;;;;;14.07;100.00;101825.28;5068670;28;20076;-46
2023/10/10 02:04:39;;;;;;;27.23;20.42;;;;;;;14.03;100.00;101824.66;5068931;28;20080;-45
2023/10/10 02:07:15;;;;;;;27.60;20.13;;;;;;;14.00;100.00;101828.34;5068388;28;20063;-46
2023/10/10 02:09:53;;;;;;;30.38;21.35;;;;;;;13.99;100.00;101826.66;5070986;28;20082;-46
2023/10/10 02:12:22;;;;;;;27.67;19.92;;;;;;;13.99;100.00;101831.09;5069287;28;20155;-45
2023/10/10 02:14:54;;;;;;;30.08;21.67;;;;;;;13.92;100.00;101825.34;5068144;28;20052;-47
2023/10/10 02:17:26;;;;;;;28.60;21.13;;;;;;;13.88;100.00;101820.34;5068455;28;20048;-45
2023/10/10 02:19:59;;;;;;;29.73;20.90;;;;;;;13.85;100.00;101824.03;5070158;28;20052;-46
2023/10/10 02:27:56;;;;;;;25.85;19.52;;;;;;;13.79;100.00;101819.13;5072673;28;20044;-46
2023/10/10 02:30:34;;;;;;;26.75;18.60;;;;;;;13.83;100.00;101818.84;5069379;28;20118;-48
2023/10/10 02:33:14;;;;;;;24.88;19.27;;;;;;;13.77;100.00;101821.00;5067906;28;20164;-45
2023/10/10 02:35:54;;;;;;;23.67;18.25;;;;;;;13.72;100.00;101815.19;5071968;28;20078;-44
2023/10/10 02:38:31;;;;;;;25.80;18.08;;;;;;;13.70;100.00;101817.91;5070823;28;20078;-46
2023/10/10 02:41:22;;;;;;;26.65;18.80;;;;;;;13.66;100.00;101819.91;5064663;28;20048;-46
2023/10/10 02:43:56;;;;;;;26.45;19.15;;;;;;;13.59;100.00;101813.28;5067605;28;20052;-47
2023/10/10 02:46:34;;;;;;;26.35;18.23;;;;;;;13.57;100.00;101820.47;5071089;28;20372;-46
2023/10/10 02:49:09;;;;;;;23.25;17.58;;;;;;;13.55;100.00;101821.53;5067255;28;20049;-47
2023/10/10 02:51:40;;;;;;;25.98;18.38;;;;;;;13.49;100.00;101822.75;5067758;28;20995;-47
2023/10/10 02:54:32;;;;;;;25.95;18.27;;;;;;;13.42;100.00;101824.91;5065559;28;20060;-46
2023/10/10 02:57:26;;;;;;;25.55;17.52;;;;;;;13.39;100.00;101833.03;5065206;28;20049;-47
2023/10/10 02:59:59;;;;;;;23.83;18.67;;;;;;;13.38;100.00;101827.84;5064172;28;20098;-45
2023/10/10 03:02:40;;;;;;;24.90;18.73;;;;;;;13.32;100.00;101821.97;5068267;28;20068;-45
2023/10/10 03:05:15;;;;;;;28.15;18.75;;;;;;;13.30;100.00;101815.06;5067396;28;20094;-46
2023/10/10 03:07:51;;;;;;;28.00;19.00;;;;;;;13.28;100.00;101817.81;5069044;28;20044;-47
2023/10/10 03:10:37;;;;;;;25.42;19.80;;;;;;;13.29;100.00;101808.97;5071690;28;20067;-47
2023/10/10 03:13:13;;;;;;;30.17;20.83;;;;;;;13.27;100.00;101804.72;5071598;28;20068;-44
2023/10/10 03:15:52;;;;;;;25.52;20.83;;;;;;;13.23;100.00;101804.03;5066764;28;20048;-46
2023/10/10 03:18:19;;;;;;;24.98;18.80;;;;;;;13.23;100.00;101811.97;5066722;28;20177;-46
2023/10/10 03:21:06;;;;;;;27.65;18.83;;;;;;;13.19;100.00;101813.09;5067279;28;20048;-46
2023/10/10 03:23:43;;;;;;;30.35;20.55;;;;;;;13.19;100.00;101802.53;5066697;28;20048;-46
2023/10/10 03:26:19;;;;;;;33.88;20.58;;;;;;;13.22;100.00;101804.13;5071624;28;20056;-47
2023/10/10 03:28:49;;;;;;;30.05;20.77;;;;;;;13.18;100.00;101806.09;5071604;28;20507;-47
2023/10/10 03:31:31;;;;;;;28.23;20.58;;;;;;;13.21;100.00;101805.94;5071452;28;20072;-47
2023/10/10 03:34:16;;;;;;;32.50;22.38;;;;;;;13.24;100.00;101805.75;5071558;28;20492;-48
2023/10/10 03:36:46;;;;;;;34.63;23.95;;;;;;;13.22;100.00;101793.56;5071287;28;20102;-48
2023/10/10 03:39:23;;;;;;;36.85;24.17;;;;;;;13.25;100.00;101799.53;5068456;28;20076;-46
2023/10/10 05:24:44;;;;;;;59.47;39.00;;;;;;;13.75;100.00;101738.31;5073852;28;20049;-45
2023/10/10 05:27:12;;;;;;;60.97;38.33;;;;;;;13.79;100.00;101739.81;5073875;28;20058;-46
2023/10/10 05:29:43;;;;;;;59.05;37.92;;;;;;;13.81;100.00;101732.63;5073870;28;20049;-46
2023/10/10 05:32:11;;;;;;;60.25;38.60;;;;;;;13.82;100.00;101729.03;5073721;28;20041;-46
2023/10/10 05:34:41;;;;;;;60.05;37.20;;;;;;;13.85;100.00;101724.41;5073736;28;20044;-45
2023/10/10 05:37:10;;;;;;;56.13;38.72;;;;;;;13.88;100.00;101726.00;5072465;28;20068;-48
2023/10/10 05:39:38;;;;;;;59.38;37.13;;;;;;;13.90;100.00;101715.34;5073376;28;20419;-47
2023/10/10 05:42:13;;;;;;;68.43;38.85;;;;;;;13.91;100.00;101711.75;5073593;28;20051;-49
2023/10/10 05:44:41;;;;;;;63.43;37.17;;;;;;;13.94;100.00;101719.47;5073506;28;20040;-46
2023/10/10 05:47:10;;;;;;;60.72;36.35;;;;;;;13.94;100.00;101716.81;5073434;28;21021;-45
2023/10/10 05:49:39;;;;;;;58.15;35.65;;;;;;;13.95;100.00;101723.81;5073428;28;20049;-45
2023/10/10 05:52:07;;;;;;;61.58;36.25;;;;;;;13.98;100.00;101708.59;5073255;28;20488;-46
2023/10/10 05:54:37;;;;;;;66.32;35.50;;;;;;;14.00;100.00;101716.41;5073267;28;20040;-46
2023/10/10 05:57:10;;;;;;;65.97;36.45;;;;;;;13.99;100.00;101710.28;5073502;28;20059;-46
2023/10/10 05:59:39;;;;;;;58.10;35.70;;;;;;;14.00;100.00;101717.28;5073342;28;20102;-46
2023/10/10 06:02:11;;;;;;;67.90;36.15;;;;;;;14.01;100.00;101707.53;5073059;28;20422;-47
2023/10/10 06:04:43;;;;;;;67.60;35.77;;;;;;;14.03;100.00;101706.47;5072896;28;20036;-47
2023/10/10 06:07:12;;;;;;;71.50;35.22;;;;;;;14.02;100.00;101699.50;5073028;28;20041;-46
2023/10/10 06:09:42;;;;;;;62.47;35.75;;;;;;;14.03;100.00;101695.91;5073037;28;20059;-48
2023/10/10 06:12:10;;;;;;;65.63;35.95;;;;;;;14.01;100.00;101703.06;5072979;28;20079;-46
2023/10/10 06:14:42;;;;;;;59.63;36.17;;;;;;;14.05;100.00;101693.16;5071604;28;20559;-49
2023/10/10 06:17:13;;;;;;;53.50;35.50;;;;;;;14.06;100.00;101701.94;5073090;28;20102;-46
2023/10/10 06:19:45;;;;;;;57.70;37.92;;;;;;;14.08;100.00;101697.41;5072899;28;20041;-46
2023/10/10 06:22:15;;;;;;;55.30;37.33;;;;;;;14.09;100.00;101709.69;5072703;28;20056;-47
2023/10/10 06:24:46;;;;;;;64.35;40.10;;;;;;;14.12;100.00;101712.13;5072954;28;20491;-46
2023/10/10 06:27:14;;;;;;;56.63;39.22;;;;;;;14.14;100.00;101700.47;5072648;28;20127;-49
2023/10/10 06:29:43;;;;;;;65.28;43.40;;;;;;;14.13;100.00;101693.50;5072346;28;20049;-46
2023/10/10 06:32:15;;;;;;;69.50;43.97;;;;;;;14.16;100.00;101692.44;5072711;28;20544;-46
2023/10/10 06:34:49;;;;;;;74.85;46.60;;;;;;;14.14;100.00;101692.56;5072586;28;20048;-47
2023/10/10 06:37:18;;;;;;;82.43;50.67;;;;;;;14.14;100.00;101699.66;5072788;28;20053;-46
2023/10/10 06:39:55;;;;;;;86.05;52.40;;;;;;;14.13;100.00;101706.72;5072218;28;20542;-45
2023/10/10 06:42:28;;;;;;;83.03;51.45;;;;;;;14.13;100.00;101709.38;5072404;28;20056;-45
2023/10/10 06:45:02;;;;;;;81.28;51.70;;;;;;;14.15;100.00;101711.91;5072379;28;20042;-46
2023/10/10 06:47:32;;;;;;;75.72;50.38;;;;;;;14.15;100.00;101701.31;5072304;28;20064;-46
2023/10/10 06:50:01;;;;;;;75.70;50.58;;;;;;;14.13;100.00;101703.22;5072623;28;20518;-47
2023/10/10 06:52:34;;;;;;;82.65;51.90;;;;;;;14.14;100.00;101712.88;5072254;28;20055;-48
2023/10/10 06:55:10;;;;;;;79.97;50.97;;;;;;;14.13;100.00;101708.53;5072224;28;20046;-45
2023/10/10 06:57:40;;;;;;;80.20;52.10;;;;;;;14.15;100.00;101714.53;5072114;28;20056;-45
2023/10/10 07:00:27;;;;;;;76.93;51.15;;;;;;;14.19;100.00;101713.38;5070717;28;20132;-46
2023/10/10 07:02:56;;;;;;;73.32;51.72;;;;;;;14.23;100.00;101711.41;5071875;28;20059;-47
2023/10/10 07:05:27;;;;;;;82.32;52.58;;;;;;;14.27;100.00;101710.25;5071986;28;20072;-46
2023/10/10 07:07:59;;;;;;;71.97;49.65;;;;;;;14.27;100.00;101707.59;5071812;28;20131;-47
2023/10/10 07:10:35;;;;;;;72.97;51.38;;;;;;;14.29;100.00;101701.25;5071772;28;20040;-46
2023/10/10 07:13:10;;;;;;;73.85;51.42;;;;;;;14.26;100.00;101696.19;5071904;28;20110;-45
2023/10/10 07:15:39;;;;;;;76.95;51.97;;;;;;;14.31;100.00;101699.34;5071788;28;20763;-47
2023/10/10 07:18:13;;;;;;;72.13;48.72;;;;;;;14.33;100.00;101702.75;5071787;28;20144;-46
2023/10/10 07:23:38;;;;;;;68.32;46.88;;;;;;;14.44;100.00;101719.69;5071840;28;20048;-46
2023/10/10 07:26:18;;;;;;;67.00;46.67;;;;;;;14.48;100.00;101716.72;5071622;28;20487;-45
2023/10/10 07:28:53;;;;;;;63.58;47.65;;;;;;;14.57;100.00;101725.84;5071647;28;20041;-49
2023/10/10 07:31:24;;;;;;;62.67;44.85;;;;;;;14.61;100.00;101719.38;5071840;28;20094;-47
2023/10/10 07:34:03;;;;;;;61.25;44.55;;;;;;;14.59;100.00;101723.94;5071543;28;20117;-48
2023/10/10 07:36:32;;;;;;;63.50;46.15;;;;;;;14.62;100.00;101722.91;5071413;28;20132;-46
2023/10/10 07:41:52;;;;;;;62.33;43.83;;;;;;;14.73;100.00;101724.84;5070054;28;20135;-46
2023/10/10 07:44:22;;;;;;;63.78;43.15;;;;;;;14.74;100.00;101724.72;5071492;28;20053;-47
2023/10/10 07:49:33;;;;;;;55.58;39.80;;;;;;;14.77;100.00;101719.22;5071167;28;20059;-45
2023/10/10 07:52:03;;;;;;;51.22;38.75;;;;;;;14.82;100.00;101725.03;5071191;28;20048;-47
2023/10/10 07:54:38;;;;;;;55.92;39.67;;;;;;;14.88;100.00;101724.59;5071275;28;20044;-48
2023/10/10 07:57:17;;;;;;;49.63;37.40;;;;;;;14.93;100.00;101724.31;5070125;28;20041;-50
2023/10/10 07:59:46;;;;;;;43.40;32.88;;;;;;;15.00;100.00;101725.56;5071133;28;20045;-47
2023/10/10 08:02:24;;;;;;;40.10;30.75;;;;;;;15.06;100.00;101721.63;5071158;28;20048;-45
2023/10/10 08:04:54;;;;;;;40.08;29.48;;;;;;;15.08;100.00;101718.88;5071082;28;20095;-44
2023/10/10 08:07:23;;;;;;;37.10;27.70;;;;;;;15.13;100.00;101719.41;5071177;28;20387;-48
2023/10/10 08:10:13;;;;;;;35.60;27.58;;;;;;;15.25;100.00;101715.88;5071194;28;20089;-47
2023/10/10 08:12:43;;;;;;;34.85;26.63;;;;;;;15.37;100.00;101707.03;5070941;28;20048;-46
2023/10/10 08:15:20;;;;;;;34.05;25.48;;;;;;;15.46;100.00;101710.00;5070821;28;20048;-47
2023/10/10 08:17:55;;;;;;;31.40;24.10;;;;;;;15.45;100.00;101711.81;5070887;28;20101;-46
2023/10/10 08:20:34;;;;;;;32.17;23.67;;;;;;;15.66;100.00;101713.84;5071152;28;20132;-47
2023/10/10 08:23:04;;;;;;;31.88;24.08;;;;;;;15.60;100.00;101706.34;5070868;28;20052;-49
2023/10/10 08:25:33;;;;;;;30.48;23.35;;;;;;;15.68;100.00;101707.47;5070976;28;20115;-45
2023/10/10 08:28:03;;;;;;;30.38;22.67;;;;;;;15.75;100.00;101707.88;5071026;28;20431;-46
2023/10/10 08:30:33;;;;;;;26.77;22.27;;;;;;;15.86;100.00;101710.59;5071013;28;20060;-46
2023/10/10 08:33:02;;;;;;;28.65;21.98;;;;;;;15.93;100.00;101711.00;5070983;28;20576;-45
2023/10/10 08:35:38;;;;;;;30.45;21.92;;;;;;;16.07;100.00;101715.28;5070711;28;20079;-47
2023/10/10 08:38:07;;;;;;;29.33;21.75;;;;;;;16.22;100.00;101718.59;5070849;28;20119;-45
2023/10/10 08:40:37;;;;;;;28.75;20.95;;;;;;;16.36;100.00;101712.22;5070663;28;20056;-45
2023/10/10 08:43:07;;;;;;;30.52;21.42;;;;;;;16.33;100.00;101720.44;5070619;28;20041;-46
2023/10/10 08:45:43;;;;;;;31.48;21.85;;;;;;;16.34;100.00;101712.34;5070714;28;20037;-45
2023/10/10 08:48:13;;;;;;;27.33;20.52;;;;;;;16.41;100.00;101715.38;5070793;28;20052;-47
2023/10/10 08:50:44;;;;;;;26.40;19.08;;;;;;;16.42;100.00;101710.94;5070864;28;20048;-46
2023/10/10 08:53:13;;;;;;;28.83;20.88;;;;;;;16.52;100.00;101718.09;5073070;28;20082;-46
2023/10/10 08:55:42;;;;;;;23.95;17.75;;;;;;;16.70;100.00;101725.56;5074041;28;20446;-49
2023/10/10 08:58:12;;;;;;;24.58;18.67;;;;;;;16.73;100.00;101720.03;5073866;28;20054;-47
2023/10/10 09:00:40;;;;;;;23.20;17.55;;;;;;;16.81;100.00;101722.94;5074268;28;20055;-46
2023/10/10 09:03:09;;;;;;;25.98;18.45;;;;;;;16.93;100.00;101715.84;5074191;28;20391;-46
2023/10/10 09:05:37;;;;;;;23.20;17.50;;;;;;;17.01;100.00;101717.91;5074174;28;20045;-48
2023/10/10 09:08:14;;;;;;;23.98;16.77;;;;;;;17.09;100.00;101719.97;5073954;28;20052;-46
2023/10/10 09:10:47;;;;;;;21.95;15.93;;;;;;;17.17;100.00;101723.69;5074226;28;20041;-46
2023/10/10 09:13:17;;;;;;;21.88;16.98;;;;;;;17.23;100.00;101717.91;5074107;28;20102;-48
2023/10/10 09:15:55;;;;;;;21.92;16.35;;;;;;;17.28;100.00;101720.19;5073929;28;20117;-45
2023/10/10 09:18:25;;;;;;;22.33;16.10;;;;;;;17.35;100.00;101709.91;5073833;28;20048;-46
2023/10/10 09:21:10;;;;;;;24.40;17.17;;;;;;;17.48;100.00;101710.63;5073805;28;20098;-48
2023/10/10 09:23:42;;;;;;;20.75;16.15;;;;;;;17.51;100.00;101712.19;5073793;28;20048;-47
2023/10/10 09:26:19;;;;;;;21.70;14.75;;;;;;;17.64;100.00;101714.69;5073775;28;20048;-47
2023/10/10 09:28:55;;;;;;;24.10;16.30;;;;;;;17.64;100.00;101710.22;5073882;28;20054;-47
2023/10/10 09:31:31;;;;;;;23.77;15.27;;;;;;;17.70;100.00;101708.88;5073740;28;20051;-49
2023/10/10 09:34:03;;;;;;;21.30;16.00;;;;;;;17.70;100.00;101709.72;5073634;28;20124;-46
2023/10/10 09:36:38;;;;;;;22.05;15.30;;;;;;;17.84;100.00;101707.72;5073790;28;20090;-48
2023/10/10 09:39:25;;;;;;;22.80;15.77;;;;;;;17.78;100.00;101689.59;5073523;28;20041;-46
2023/10/10 09:42:09;;;;;;;22.92;15.90;;;;;;;18.02;100.00;101692.91;5073424;28;20058;-47
2023/10/10 09:47:42;;;;;;;20.25;15.18;;;;;;;18.32;100.00;101703.78;5052449;28;20060;-48
2023/10/10 09:52:59;;;;;;;21.58;14.55;;;;;;;18.59;100.00;101709.41;5073263;28;20053;-47
2023/10/10 09:58:24;;;;;;;23.50;15.57;;;;;;;19.01;100.00;101707.69;5066923;28;20387;-45
2023/10/10 10:01:03;;;;;;;21.73;15.52;;;;;;;19.03;100.00;101695.94;5073368;28;20044;-46
2023/10/10 10:03:49;;;;;;;20.80;15.18;;;;;;;19.10;100.00;101685.53;5072733;28;20049;-47
2023/10/10 10:06:38;;;;;;;24.30;15.45;;;;;;;19.31;100.00;101684.63;5073621;28;20044;-48
2023/10/10 10:09:51;;;;;;;21.08;15.15;;;;;;;19.54;100.00;101683.41;5073199;28;20135;-46
2023/10/10 10:12:44;;;;;;;20.20;15.38;;;;;;;19.75;100.00;101683.25;5073212;28;20044;-48
2023/10/10 10:15:28;;;;;;;22.20;14.98;;;;;;;19.96;100.00;101682.34;5071778;28;20084;-48
2023/10/10 10:18:12;;;;;;;21.17;14.93;;;;;;;20.25;100.00;101692.16;5072927;28;20499;-51
2023/10/10 10:20:48;;;;;;;23.77;15.23;;;;;;;20.15;100.00;101692.16;5072827;28;20040;-47
2023/10/10 10:23:25;;;;;;;22.67;15.38;;;;;;;20.34;100.00;101693.97;5072974;28;20043;-46
2023/10/10 10:26:04;;;;;;;21.10;14.50;;;;;;;20.30;100.00;101695.22;5072851;28;20044;-46
2023/10/10 10:28:35;;;;;;;23.17;14.45;;;;;;;20.66;100.00;101695.41;5072746;28;20127;-48
2023/10/10 10:31:07;;;;;;;20.73;13.93;;;;;;;20.93;100.00;101691.13;5072899;28;20052;-47
2023/10/10 10:33:52;;;;;;;20.80;14.32;;;;;;;21.23;100.00;101689.97;5072758;28;20380;-47
2023/10/10 10:36:26;;;;;;;17.65;12.88;;;;;;;21.71;100.00;101682.63;5072685;28;20491;-49
2023/10/10 10:41:47;;;;;;;19.30;14.25;;;;;;;21.69;100.00;101679.28;5072390;28;20050;-46
2023/10/10 10:44:28;;;;;;;20.80;13.98;;;;;;;22.08;100.00;101676.25;5072548;28;20391;-46
2023/10/10 10:46:57;;;;;;;20.05;14.18;;;;;;;22.27;100.00;101674.38;5072269;28;20048;-49
2023/10/10 10:49:30;;;;;;;19.10;13.73;;;;;;;22.40;100.00;101669.50;5072332;28;20044;-46
2023/10/10 10:52:17;;;;;;;17.88;13.63;;;;;;;22.66;100.00;101665.09;5071686;28;20106;-49
2023/10/10 10:55:18;;;;;;;19.88;14.00;;;;;;;22.87;100.00;101675.44;5068076;28;20052;-50
2023/10/10 10:57:41;;;;;;;21.25;14.23;;;;;;;22.98;100.00;101674.31;5071268;28;20499;-49
2023/10/10 11:00:29;;;;;;;22.60;13.82;;;;;;;23.17;100.00;101668.69;5072328;28;20058;-47
2023/10/10 11:02:59;;;;;;;18.95;13.38;;;;;;;23.79;100.00;101670.97;5072037;28;20551;-48
2023/10/10 11:05:31;;;;;;;22.67;14.07;;;;;;;23.81;100.00;101665.44;5071621;28;20045;-49
2023/10/10 11:08:11;;;;;;;19.38;14.45;;;;;;;24.03;100.00;101661.25;5071436;28;20033;-47
2023/10/10 11:10:45;;;;;;;19.60;13.63;;;;;;;24.10;100.00;101664.94;5071030;28;20056;-49
2023/10/10 11:13:14;;;;;;;20.02;13.45;;;;;;;24.25;100.00;101670.44;5067796;28;20067;-51
2023/10/10 11:15:43;;;;;;;18.83;13.77;;;;;;;23.99;100.00;101657.22;5067176;28;20807;-45
2023/10/10 11:18:12;;;;;;;19.63;13.90;;;;;;;23.94;100.00;101670.31;5067761;28;20547;-46
2023/10/10 11:21:06;;;;;;;19.92;13.43;;;;;;;23.73;100.00;101663.56;5068307;28;20052;-46
2023/10/10 11:23:42;;;;;;;20.83;12.45;;;;;;;24.13;100.00;101658.38;5071706;28;20040;-46
2023/10/10 11:26:13;;;;;;;19.67;13.10;;;;;;;24.33;100.00;101656.19;5071558;28;20510;-49
2023/10/10 11:28:47;;;;;;;17.60;12.80;;;;;;;24.03;100.00;101647.81;5070522;28;20045;-49
2023/10/10 11:31:23;;;;;;;20.35;12.52;;;;;;;24.01;100.00;101641.78;5067673;28;20064;-49
2023/10/10 11:34:09;;;;;;;18.58;12.20;;;;;;;24.70;100.00;101637.78;5067590;28;20048;-47
2023/10/10 11:36:39;;;;;;;19.88;12.20;;;;;;;25.44;100.00;101635.56;5069944;28;20084;-47
2023/10/10 11:39:31;;;;;;;18.65;12.05;;;;;;;25.35;100.00;101627.72;5068845;28;20044;-50
2023/10/10 11:42:04;;;;;;;18.58;11.75;;;;;;;25.38;100.00;101630.03;5066175;28;20058;-49
2023/10/10 11:44:33;;;;;;;17.30;11.70;;;;;;;25.39;100.00;101627.16;5067569;28;20052;-47
2023/10/10 11:47:08;;;;;;;16.63;12.18;;;;;;;25.82;100.00;101621.25;5067501;28;20415;-47
2023/10/10 11:49:36;;;;;;;16.67;11.40;;;;;;;25.96;100.00;101623.16;5067696;28;20063;-49
2023/10/10 11:52:20;;;;;;;17.08;11.10;;;;;;;26.18;100.00;101619.75;5067112;28;20068;-48
2023/10/10 11:54:48;;;;;;;17.25;10.85;;;;;;;25.86;100.00;101614.50;5067446;28;20056;-50
2023/10/10 11:57:16;;;;;;;20.00;10.93;;;;;;;25.94;100.00;101614.41;5071496;28;20037;-48
2023/10/10 11:59:46;;;;;;;16.35;10.00;;;;;;;26.36;100.00;101614.03;5070040;28;20143;-48
2023/10/10 12:02:17;;;;;;;15.73;11.18;;;;;;;25.92;99.55;101607.53;5067996;28;20052;-46
2023/10/10 12:04:45;;;;;;;17.30;10.50;;;;;;;26.02;98.16;101605.44;5067512;28;20062;-50
2023/10/10 12:07:18;;;;;;;14.70;9.73;;;;;;;26.64;96.29;101603.38;5066653;28;20052;-52
2023/10/10 12:09:48;;;;;;;14.95;9.20;;;;;;;27.12;94.42;101606.47;5065659;28;20057;-49
2023/10/10 12:12:16;;;;;;;17.00;10.13;;;;;;;27.09;89.24;101600.63;5066281;28;20423;-49
2023/10/10 12:14:50;;;;;;;15.02;9.65;;;;;;;26.93;92.30;101594.44;5067063;28;20094;-47
2023/10/10 12:17:21;;;;;;;15.32;9.60;;;;;;;27.28;91.84;101591.91;5071410;28;20056;-49
2023/10/10 12:19:49;;;;;;;14.63;8.95;;;;;;;27.47;91.33;101593.13;5071175;28;20410;-48
2023/10/10 12:22:18;;;;;;;17.65;9.77;;;;;;;27.36;86.08;101590.94;5071333;28;20495;-51
2023/10/10 12:24:47;;;;;;;14.55;9.25;;;;;;;27.29;88.51;101590.84;5070924;28;20049;-49
2023/10/10 12:27:15;;;;;;;15.52;9.18;;;;;;;27.08;87.56;101580.91;5072225;28;20376;-45
2023/10/10 12:29:47;;;;;;;15.68;10.30;;;;;;;25.96;90.83;101576.53;5071136;28;20128;-47
2023/10/10 12:32:18;;;;;;;13.63;9.35;;;;;;;26.59;91.14;101586.94;5069905;28;20114;-48
2023/10/10 12:34:47;;;;;;;18.05;9.88;;;;;;;26.70;89.09;101572.16;5071591;28;20045;-48
2023/10/10 12:37:16;;;;;;;16.80;9.18;;;;;;;26.88;91.26;101575.28;5070917;28;20039;-49
2023/10/10 12:39:47;;;;;;;14.90;9.50;;;;;;;27.12;91.14;101581.34;5070831;28;20511;-48
2023/10/10 12:42:15;;;;;;;17.33;9.98;;;;;;;27.36;86.94;101579.28;5069928;28;20495;-49
2023/10/10 12:44:47;;;;;;;16.20;9.32;;;;;;;27.63;89.17;101574.97;5070543;28;20056;-51
2023/10/10 12:47:19;;;;;;;15.55;9.82;;;;;;;27.85;86.09;101578.47;5070451;28;20044;-49
2023/10/10 12:49:47;;;;;;;14.77;9.43;;;;;;;27.89;85.49;101578.91;5071230;28;20131;-48
2023/10/10 12:52:17;;;;;;;14.88;8.73;;;;;;;27.98;91.31;101569.63;5070480;28;20066;-50
2023/10/10 12:54:56;;;;;;;16.52;9.13;;;;;;;27.52;85.68;101565.53;5074446;28;20072;-47
2023/10/10 12:57:32;;;;;;;16.73;9.85;;;;;;;27.42;85.38;101565.88;5074380;28;20051;-49
2023/10/10 13:00:23;;;;;;;14.13;8.75;;;;;;;27.76;89.28;101572.38;5058416;28;20753;-47
2023/10/10 13:02:49;;;;;;;18.70;9.40;;;;;;;27.91;88.08;101566.88;5057145;28;20048;-47
2023/10/10 13:05:18;;;;;;;14.38;9.10;;;;;;;27.89;87.46;101557.28;5059212;28;20128;-50
2023/10/10 13:07:46;;;;;;;15.13;9.23;;;;;;;27.95;84.19;101562.75;5070586;28;20080;-51
2023/10/10 13:10:15;;;;;;;14.38;9.00;;;;;;;27.81;86.07;101560.97;5070738;28;20091;-48
2023/10/10 13:12:51;;;;;;;17.83;9.20;;;;;;;27.63;87.96;101556.06;5074102;28;20055;-49
2023/10/10 13:15:27;;;;;;;15.80;8.75;;;;;;;27.61;87.36;101560.81;5069930;28;20053;-50
2023/10/10 13:18:11;;;;;;;15.02;9.20;;;;;;;27.72;82.56;101560.28;5070908;28;20575;-51
2023/10/10 13:20:40;;;;;;;14.23;8.48;;;;;;;27.46;84.89;101555.50;5072050;28;20045;-51
2023/10/10 13:23:12;;;;;;;15.93;9.27;;;;;;;27.53;83.25;101547.47;5069984;28;20043;-48
2023/10/10 13:25:48;;;;;;;14.02;8.50;;;;;;;27.53;86.87;101548.31;5073197;28;20472;-49
2023/10/10 13:28:21;;;;;;;17.15;8.93;;;;;;;27.51;84.76;101553.06;5074155;28;20080;-52
2023/10/10 13:30:49;;;;;;;16.45;8.38;;;;;;;27.60;84.11;101549.19;5074332;28;20052;-48
2023/10/10 13:33:20;;;;;;;14.65;7.93;;;;;;;27.47;85.19;101551.78;5074073;28;20521;-48
2023/10/10 13:35:48;;;;;;;13.38;7.68;;;;;;;27.07;84.10;101544.13;5073936;28;20128;-46
2023/10/10 13:38:17;;;;;;;15.77;9.20;;;;;;;26.68;83.07;101550.72;5073134;28;20037;-47
2023/10/10 13:40:48;;;;;;;13.80;7.88;;;;;;;26.56;88.06;101542.31;5073401;28;20060;-47
2023/10/10 13:43:17;;;;;;;18.77;7.97;;;;;;;26.57;91.94;101548.53;5073699;28;20479;-48